sensor_id;sensor_type;location;lat;lon;timestamp;pressure;altitude;pressure_sealevel;temperature;humidity
15193;BME280;7697;51.630;7.484;2023-02-14T00:03:05;102770.09;;;4.84;90.02
15193;BME280;7697;51.630;7.484;2023-02-14T00:08:07;102767.16;;;4.76;89.88
15193;BME280;7697;51.630;7.484;2023-02-14T00:13:10;102765.91;;;4.69;89.84
15193;BME280;7697;51.630;7.484;2023-02-14T00:18:11;102764.34;;;4.54;89.78
15193;BME280;7697;51.630;7.484;2023-02-14T00:23:13;102769.16;;;4.47;90.59
15193;BME280;7697;51.630;7.484;2023-02-14T00:28:16;102759.00;;;4.43;90.41
15193;BME280;7697;51.630;7.484;2023-02-14T00:33:18;102765.28;;;4.40;90.39
15193;BME280;7697;51.630;7.484;2023-02-14T00:38:19;102772.53;;;4.37;90.37
15193;BME280;7697;51.630;7.484;2023-02-14T00:43:22;102774.53;;;4.33;90.38
15193;BME280;7697;51.630;7.484;2023-02-14T00:48:24;102761.75;;;4.29;90.50
15193;BME280;7697;51.630;7.484;2023-02-14T00:53:25;102761.09;;;4.25;90.32
15193;BME280;7697;51.630;7.484;2023-02-14T00:58:29;102767.59;;;4.20;90.18
15193;BME280;7697;51.630;7.484;2023-02-14T01:03:31;102766.13;;;4.15;90.21
15193;BME280;7697;51.630;7.484;2023-02-14T01:08:32;102779.41;;;4.12;90.41
15193;BME280;7697;51.630;7.484;2023-02-14T01:13:36;102772.63;;;4.10;90.80
15193;BME280;7697;51.630;7.484;2023-02-14T01:18:37;102772.06;;;4.05;91.07
15193;BME280;7697;51.630;7.484;2023-02-14T01:23:40;102772.28;;;4.02;91.09
15193;BME280;7697;51.630;7.484;2023-02-14T01:28:43;102769.69;;;4.02;91.81
15193;BME280;7697;51.630;7.484;2023-02-14T01:33:47;102768.59;;;4.04;93.54
15193;BME280;7697;51.630;7.484;2023-02-14T01:38:51;102768.50;;;4.06;94.63
15193;BME280;7697;51.630;7.484;2023-02-14T01:43:58;102769.34;;;4.06;95.57
15193;BME280;7697;51.630;7.484;2023-02-14T01:49:02;102769.44;;;4.05;97.03
15193;BME280;7697;51.630;7.484;2023-02-14T01:54:07;102763.06;;;4.09;97.64
15193;BME280;7697;51.630;7.484;2023-02-14T01:59:15;102759.84;;;4.18;97.00
15193;BME280;7697;51.630;7.484;2023-02-14T02:04:31;102762.03;;;4.24;96.49
15193;BME280;7697;51.630;7.484;2023-02-14T02:09:38;102747.03;;;4.26;96.57
15193;BME280;7697;51.630;7.484;2023-02-14T02:14:46;102740.31;;;4.22;97.21
15193;BME280;7697;51.630;7.484;2023-02-14T02:25:57;102735.72;;;4.26;96.83
15193;BME280;7697;51.630;7.484;2023-02-14T02:31:33;102727.75;;;4.27;96.34
15193;BME280;7697;51.630;7.484;2023-02-14T02:36:50;102730.66;;;4.23;96.95
15193;BME280;7697;51.630;7.484;2023-02-14T02:42:04;102727.31;;;4.21;96.85
15193;BME280;7697;51.630;7.484;2023-02-14T02:47:10;102721.03;;;4.10;97.27
15193;BME280;7697;51.630;7.484;2023-02-14T02:52:26;102732.38;;;4.11;97.52
15193;BME280;7697;51.630;7.484;2023-02-14T02:57:50;102727.31;;;4.08;98.03
15193;BME280;7697;51.630;7.484;2023-02-14T03:02:54;102734.34;;;4.07;98.60
15193;BME280;7697;51.630;7.484;2023-02-14T03:08:15;102720.50;;;4.05;99.06
15193;BME280;7697;51.630;7.484;2023-02-14T03:24:24;102718.72;;;4.06;99.57
15193;BME280;7697;51.630;7.484;2023-02-14T03:29:31;102718.72;;;4.06;99.27
15193;BME280;7697;51.630;7.484;2023-02-14T03:34:45;102714.31;;;4.06;98.78
15193;BME280;7697;51.630;7.484;2023-02-14T03:39:56;102710.66;;;4.09;98.79
15193;BME280;7697;51.630;7.484;2023-02-14T03:45:00;102708.03;;;4.09;98.13
15193;BME280;7697;51.630;7.484;2023-02-14T03:50:07;102705.69;;;4.04;98.21
15193;BME280;7697;51.630;7.484;2023-02-14T03:55:14;102712.00;;;4.02;97.59
15193;BME280;7697;51.630;7.484;2023-02-14T04:00:17;102709.03;;;3.94;98.30
15193;BME280;7697;51.630;7.484;2023-02-14T04:05:22;102706.31;;;3.83;98.17
15193;BME280;7697;51.630;7.484;2023-02-14T04:10:26;102699.81;;;3.75;99.00
15193;BME280;7697;51.630;7.484;2023-02-14T04:15:28;102709.03;;;3.81;98.93
15193;BME280;7697;51.630;7.484;2023-02-14T04:20:29;102704.63;;;3.82;99.24
15193;BME280;7697;51.630;7.484;2023-02-14T04:25:32;102701.91;;;3.83;99.39
15193;BME280;7697;51.630;7.484;2023-02-14T04:30:34;102691.41;;;3.70;99.13
15193;BME280;7697;51.630;7.484;2023-02-14T04:35:36;102692.06;;;3.74;99.25
15193;BME280;7697;51.630;7.484;2023-02-14T04:40:39;102685.75;;;3.76;99.46
15193;BME280;7697;51.630;7.484;2023-02-14T04:45:41;102690.16;;;3.76;98.90
15193;BME280;7697;51.630;7.484;2023-02-14T04:50:42;102679.91;;;3.73;99.16
15193;BME280;7697;51.630;7.484;2023-02-14T04:55:47;102671.09;;;3.74;98.58
15193;BME280;7697;51.630;7.484;2023-02-14T05:00:49;102660.06;;;3.69;97.69
15193;BME280;7697;51.630;7.484;2023-02-14T05:05:51;102657.03;;;3.62;98.06
15193;BME280;7697;51.630;7.484;2023-02-14T05:10:54;102664.13;;;3.60;97.87
15193;BME280;7697;51.630;7.484;2023-02-14T05:15:56;102657.53;;;3.55;97.82
15193;BME280;7697;51.630;7.484;2023-02-14T05:20:58;102659.50;;;3.51;97.66
15193;BME280;7697;51.630;7.484;2023-02-14T05:26:01;102643.78;;;3.38;96.77
15193;BME280;7697;51.630;7.484;2023-02-14T05:31:03;102640.72;;;3.32;96.72
15193;BME280;7697;51.630;7.484;2023-02-14T05:36:05;102641.69;;;3.31;97.05
15193;BME280;7697;51.630;7.484;2023-02-14T05:41:08;102642.47;;;3.19;96.99
15193;BME280;7697;51.630;7.484;2023-02-14T05:46:10;102638.78;;;3.09;96.59
15193;BME280;7697;51.630;7.484;2023-02-14T05:51:12;102644.06;;;2.94;96.49
15193;BME280;7697;51.630;7.484;2023-02-14T05:56:15;102648.91;;;2.86;96.90
15193;BME280;7697;51.630;7.484;2023-02-14T06:01:17;102653.53;;;2.83;96.45
15193;BME280;7697;51.630;7.484;2023-02-14T06:06:18;102651.94;;;2.80;96.92
15193;BME280;7697;51.630;7.484;2023-02-14T06:11:21;102647.28;;;2.71;96.23
15193;BME280;7697;51.630;7.484;2023-02-14T06:16:23;102655.03;;;2.73;95.90
15193;BME280;7697;51.630;7.484;2023-02-14T06:21:25;102657.97;;;2.68;95.91
15193;BME280;7697;51.630;7.484;2023-02-14T06:26:28;102659.16;;;2.62;96.11
15193;BME280;7697;51.630;7.484;2023-02-14T06:31:29;102674.84;;;2.62;96.20
15193;BME280;7697;51.630;7.484;2023-02-14T06:36:31;102680.47;;;2.56;95.90
15193;BME280;7697;51.630;7.484;2023-02-14T06:41:34;102681.69;;;2.51;96.07
15193;BME280;7697;51.630;7.484;2023-02-14T06:46:36;102687.75;;;2.51;95.94
15193;BME280;7697;51.630;7.484;2023-02-14T06:51:38;102700.19;;;2.48;95.85
15193;BME280;7697;51.630;7.484;2023-02-14T06:56:41;102699.63;;;2.43;96.56
15193;BME280;7697;51.630;7.484;2023-02-14T07:01:42;102698.97;;;2.39;96.53
15193;BME280;7697;51.630;7.484;2023-02-14T07:06:44;102698.31;;;2.36;96.67
15193;BME280;7697;51.630;7.484;2023-02-14T07:11:47;102704.69;;;2.32;96.66
15193;BME280;7697;51.630;7.484;2023-02-14T07:16:49;102714.00;;;2.36;96.21
15193;BME280;7697;51.630;7.484;2023-02-14T07:21:51;102716.53;;;2.37;96.67
15193;BME280;7697;51.630;7.484;2023-02-14T07:26:54;102715.84;;;2.34;95.95
15193;BME280;7697;51.630;7.484;2023-02-14T07:31:56;102720.25;;;2.33;96.70
15193;BME280;7697;51.630;7.484;2023-02-14T07:36:57;102708.69;;;2.37;96.25
15193;BME280;7697;51.630;7.484;2023-02-14T07:42:00;102702.59;;;2.37;96.17
15193;BME280;7697;51.630;7.484;2023-02-14T07:47:02;102699.81;;;2.40;96.48
15193;BME280;7697;51.630;7.484;2023-02-14T07:52:04;102693.28;;;2.33;96.77
15193;BME280;7697;51.630;7.484;2023-02-14T07:57:07;102683.94;;;2.43;97.10
15193;BME280;7697;51.630;7.484;2023-02-14T08:02:10;102693.81;;;2.52;96.46
15193;BME280;7697;51.630;7.484;2023-02-14T08:07:12;102683.72;;;2.60;97.82
15193;BME280;7697;51.630;7.484;2023-02-14T08:12:15;102681.19;;;2.73;98.35
15193;BME280;7697;51.630;7.484;2023-02-14T08:17:35;102681.81;;;2.90;98.35
15193;BME280;7697;51.630;7.484;2023-02-14T08:22:36;102688.66;;;3.20;99.62
15193;BME280;7697;51.630;7.484;2023-02-14T08:27:39;102702.50;;;3.61;98.81
15193;BME280;7697;51.630;7.484;2023-02-14T08:32:41;102698.78;;;4.03;98.98
15193;BME280;7697;51.630;7.484;2023-02-14T08:37:43;102704.22;;;4.51;98.89
15193;BME280;7697;51.630;7.484;2023-02-14T08:42:46;102687.13;;;4.95;98.40
15193;BME280;7697;51.630;7.484;2023-02-14T08:47:48;102688.91;;;5.42;97.75
15193;BME280;7697;51.630;7.484;2023-02-14T08:52:50;102698.53;;;5.89;96.59
15193;BME280;7697;51.630;7.484;2023-02-14T08:57:53;102698.09;;;6.28;95.78
15193;BME280;7697;51.630;7.484;2023-02-14T09:02:55;102692.00;;;6.72;94.86
15193;BME280;7697;51.630;7.484;2023-02-14T09:07:57;102684.72;;;7.19;93.94
15193;BME280;7697;51.630;7.484;2023-02-14T09:13:00;102685.38;;;7.64;92.74
15193;BME280;7697;51.630;7.484;2023-02-14T09:18:02;102688.00;;;8.06;92.69
15193;BME280;7697;51.630;7.484;2023-02-14T09:23:03;102678.13;;;8.59;92.03
15193;BME280;7697;51.630;7.484;2023-02-14T09:28:06;102663.63;;;8.93;90.36
15193;BME280;7697;51.630;7.484;2023-02-14T09:33:08;102666.84;;;9.35;89.37
15193;BME280;7697;51.630;7.484;2023-02-14T09:38:10;102665.03;;;9.65;87.64
15193;BME280;7697;51.630;7.484;2023-02-14T09:43:18;102663.03;;;9.86;87.11
15193;BME280;7697;51.630;7.484;2023-02-14T09:48:25;102656.56;;;10.18;86.83
15193;BME280;7697;51.630;7.484;2023-02-14T09:53:31;102666.25;;;10.64;85.23
15193;BME280;7697;51.630;7.484;2023-02-14T09:58:38;102660.78;;;11.10;84.07
15193;BME280;7697;51.630;7.484;2023-02-14T10:04:13;102652.50;;;11.49;81.97
15193;BME280;7697;51.630;7.484;2023-02-14T10:09:34;102664.47;;;11.88;80.85
15193;BME280;7697;51.630;7.484;2023-02-14T10:14:42;102651.34;;;12.21;79.90
15193;BME280;7697;51.630;7.484;2023-02-14T10:19:46;102647.56;;;12.73;78.89
15193;BME280;7697;51.630;7.484;2023-02-14T10:24:53;102650.97;;;13.00;77.49
15193;BME280;7697;51.630;7.484;2023-02-14T10:29:58;102643.38;;;13.37;76.44
15193;BME280;7697;51.630;7.484;2023-02-14T10:35:06;102650.69;;;13.76;75.46
15193;BME280;7697;51.630;7.484;2023-02-14T10:40:23;102649.78;;;14.00;72.89
15193;BME280;7697;51.630;7.484;2023-02-14T10:45:38;102655.22;;;14.39;72.29
15193;BME280;7697;51.630;7.484;2023-02-14T10:50:46;102639.38;;;14.68;70.76
15193;BME280;7697;51.630;7.484;2023-02-14T10:55:54;102632.19;;;14.99;70.32
15193;BME280;7697;51.630;7.484;2023-02-14T11:01:00;102627.69;;;15.23;69.83
15193;BME280;7697;51.630;7.484;2023-02-14T11:06:04;102629.81;;;15.27;68.54
15193;BME280;7697;51.630;7.484;2023-02-14T11:11:12;102620.44;;;15.54;68.84
15193;BME280;7697;51.630;7.484;2023-02-14T11:16:29;102620.19;;;15.64;66.60
15193;BME280;7697;51.630;7.484;2023-02-14T11:21:36;102606.81;;;15.26;66.08
15193;BME280;7697;51.630;7.484;2023-02-14T11:26:44;102606.84;;;15.79;67.32
15193;BME280;7697;51.630;7.484;2023-02-14T11:31:48;102589.47;;;16.33;66.41
15193;BME280;7697;51.630;7.484;2023-02-14T11:36:51;102570.09;;;16.31;66.08
15193;BME280;7697;51.630;7.484;2023-02-14T11:41:55;102566.13;;;16.78;64.28
15193;BME280;7697;51.630;7.484;2023-02-14T11:47:15;102550.56;;;16.67;62.25
15193;BME280;7697;51.630;7.484;2023-02-14T11:52:17;102557.66;;;16.60;63.53
15193;BME280;7697;51.630;7.484;2023-02-14T11:57:28;102546.56;;;16.77;63.26
15193;BME280;7697;51.630;7.484;2023-02-14T12:02:37;102536.69;;;16.99;63.18
15193;BME280;7697;51.630;7.484;2023-02-14T12:07:42;102526.84;;;17.06;62.66
15193;BME280;7697;51.630;7.484;2023-02-14T12:12:48;102529.19;;;16.52;61.43
15193;BME280;7697;51.630;7.484;2023-02-14T12:17:55;102521.84;;;16.39;61.45
15193;BME280;7697;51.630;7.484;2023-02-14T12:23:02;102517.28;;;16.33;63.18
15193;BME280;7697;51.630;7.484;2023-02-14T12:28:11;102512.69;;;16.48;62.37
15193;BME280;7697;51.630;7.484;2023-02-14T12:33:18;102517.44;;;16.68;61.17
15193;BME280;7697;51.630;7.484;2023-02-14T12:38:29;102513.19;;;17.01;60.07
15193;BME280;7697;51.630;7.484;2023-02-14T12:43:46;102502.22;;;17.17;59.30
15193;BME280;7697;51.630;7.484;2023-02-14T12:49:03;102503.81;;;17.12;59.41
15193;BME280;7697;51.630;7.484;2023-02-14T12:54:26;102494.19;;;17.17;59.01
15193;BME280;7697;51.630;7.484;2023-02-14T12:59:39;102482.19;;;17.41;58.84
15193;BME280;7697;51.630;7.484;2023-02-14T13:04:53;102477.84;;;17.75;58.50
15193;BME280;7697;51.630;7.484;2023-02-14T13:09:59;102465.94;;;17.90;59.70
15193;BME280;7697;51.630;7.484;2023-02-14T13:15:14;102465.22;;;18.23;56.10
15193;BME280;7697;51.630;7.484;2023-02-14T13:20:33;102461.84;;;18.08;55.16
15193;BME280;7697;51.630;7.484;2023-02-14T13:25:38;102457.31;;;18.02;56.66
15193;BME280;7697;51.630;7.484;2023-02-14T13:30:42;102441.66;;;18.12;56.87
15193;BME280;7697;51.630;7.484;2023-02-14T13:35:45;102437.56;;;18.16;55.04
15193;BME280;7697;51.630;7.484;2023-02-14T13:40:48;102434.00;;;17.89;54.95
15193;BME280;7697;51.630;7.484;2023-02-14T13:45:53;102429.84;;;17.93;55.77
15193;BME280;7697;51.630;7.484;2023-02-14T13:50:58;102411.78;;;18.15;56.45
15193;BME280;7697;51.630;7.484;2023-02-14T13:56:02;102409.88;;;18.09;54.66
15193;BME280;7697;51.630;7.484;2023-02-14T14:01:26;102406.13;;;17.90;55.12
15193;BME280;7697;51.630;7.484;2023-02-14T14:12:41;102403.88;;;17.46;55.88
15193;BME280;7697;51.630;7.484;2023-02-14T14:17:46;102393.16;;;17.46;56.66
15193;BME280;7697;51.630;7.484;2023-02-14T14:22:51;102387.50;;;17.27;57.16
15193;BME280;7697;51.630;7.484;2023-02-14T14:27:55;102385.50;;;17.36;58.14
15193;BME280;7697;51.630;7.484;2023-02-14T14:33:12;102388.25;;;17.56;58.01
15193;BME280;7697;51.630;7.484;2023-02-14T14:38:14;102385.69;;;17.82;58.57
15193;BME280;7697;51.630;7.484;2023-02-14T14:43:23;102377.25;;;17.85;56.98
15193;BME280;7697;51.630;7.484;2023-02-14T14:48:28;102379.56;;;17.47;57.61
15193;BME280;7697;51.630;7.484;2023-02-14T14:53:36;102367.44;;;17.51;58.78
15193;BME280;7697;51.630;7.484;2023-02-14T14:58:42;102361.91;;;17.59;59.59
15193;BME280;7697;51.630;7.484;2023-02-14T15:03:44;102360.22;;;17.52;58.96
15193;BME280;7697;51.630;7.484;2023-02-14T15:08:46;102357.47;;;17.39;58.79
15193;BME280;7697;51.630;7.484;2023-02-14T15:13:50;102353.44;;;17.08;59.21
15193;BME280;7697;51.630;7.484;2023-02-14T15:18:55;102348.00;;;16.95;60.13
15193;BME280;7697;51.630;7.484;2023-02-14T15:23:58;102342.97;;;16.79;61.12
15193;BME280;7697;51.630;7.484;2023-02-14T15:29:04;102349.78;;;16.54;61.36
15193;BME280;7697;51.630;7.484;2023-02-14T15:34:07;102350.03;;;16.37;62.28
15193;BME280;7697;51.630;7.484;2023-02-14T15:39:11;102342.50;;;16.20;62.16
15193;BME280;7697;51.630;7.484;2023-02-14T15:44:20;102339.38;;;15.95;62.15
15193;BME280;7697;51.630;7.484;2023-02-14T15:49:29;102326.66;;;15.75;62.99
15193;BME280;7697;51.630;7.484;2023-02-14T15:54:36;102318.88;;;15.59;63.18
15193;BME280;7697;51.630;7.484;2023-02-14T15:59:40;102324.69;;;15.48;64.10
15193;BME280;7697;51.630;7.484;2023-02-14T16:04:42;102316.53;;;15.35;64.55
15193;BME280;7697;51.630;7.484;2023-02-14T16:09:44;102311.03;;;15.22;65.01
15193;BME280;7697;51.630;7.484;2023-02-14T16:14:59;102316.22;;;15.09;65.12
15193;BME280;7697;51.630;7.484;2023-02-14T16:20:21;102315.59;;;14.92;65.97
15193;BME280;7697;51.630;7.484;2023-02-14T16:25:22;102318.34;;;14.84;67.04
15193;BME280;7697;51.630;7.484;2023-02-14T16:30:26;102319.63;;;14.73;67.65
15193;BME280;7697;51.630;7.484;2023-02-14T16:35:27;102324.56;;;14.47;68.31
15193;BME280;7697;51.630;7.484;2023-02-14T16:40:30;102318.69;;;14.28;69.07
15193;BME280;7697;51.630;7.484;2023-02-14T16:45:34;102333.53;;;14.08;69.24
15193;BME280;7697;51.630;7.484;2023-02-14T16:50:37;102318.78;;;13.75;70.14
15193;BME280;7697;51.630;7.484;2023-02-14T16:55:40;102326.28;;;13.48;70.82
15193;BME280;7697;51.630;7.484;2023-02-14T17:00:43;102329.53;;;13.28;71.09
15193;BME280;7697;51.630;7.484;2023-02-14T17:05:44;102327.63;;;13.13;71.50
15193;BME280;7697;51.630;7.484;2023-02-14T17:10:46;102328.69;;;12.88;72.09
15193;BME280;7697;51.630;7.484;2023-02-14T17:15:50;102331.19;;;12.73;72.28
15193;BME280;7697;51.630;7.484;2023-02-14T17:20:52;102333.22;;;12.47;72.98
15193;BME280;7697;51.630;7.484;2023-02-14T17:25:54;102335.25;;;12.21;73.68
15193;BME280;7697;51.630;7.484;2023-02-14T17:30:57;102331.91;;;12.02;73.60
15193;BME280;7697;51.630;7.484;2023-02-14T17:36:03;102332.22;;;11.83;74.10
15193;BME280;7697;51.630;7.484;2023-02-14T17:41:10;102330.84;;;11.63;74.33
15193;BME280;7697;51.630;7.484;2023-02-14T17:46:15;102324.78;;;11.37;74.90
15193;BME280;7697;51.630;7.484;2023-02-14T17:51:18;102326.88;;;11.17;75.26
15193;BME280;7697;51.630;7.484;2023-02-14T17:56:22;102327.47;;;11.03;75.63
15193;BME280;7697;51.630;7.484;2023-02-14T18:01:27;102328.88;;;10.81;75.59
15193;BME280;7697;51.630;7.484;2023-02-14T18:06:30;102334.13;;;10.73;75.86
15193;BME280;7697;51.630;7.484;2023-02-14T18:11:32;102343.16;;;10.62;75.74
15193;BME280;7697;51.630;7.484;2023-02-14T18:16:37;102335.25;;;10.44;76.74
15193;BME280;7697;51.630;7.484;2023-02-14T18:21:39;102333.63;;;10.26;77.24
15193;BME280;7697;51.630;7.484;2023-02-14T18:26:42;102323.53;;;10.11;77.43
15193;BME280;7697;51.630;7.484;2023-02-14T18:31:45;102325.59;;;10.00;77.46
15193;BME280;7697;51.630;7.484;2023-02-14T18:36:47;102313.84;;;9.85;77.40
15193;BME280;7697;51.630;7.484;2023-02-14T18:41:48;102307.50;;;9.77;77.52
15193;BME280;7697;51.630;7.484;2023-02-14T18:46:51;102314.41;;;9.70;77.61
15193;BME280;7697;51.630;7.484;2023-02-14T18:51:53;102307.13;;;9.55;77.59
15193;BME280;7697;51.630;7.484;2023-02-14T18:56:56;102308.78;;;9.38;78.03
15193;BME280;7697;51.630;7.484;2023-02-14T19:01:59;102299.97;;;9.20;79.22
15193;BME280;7697;51.630;7.484;2023-02-14T19:07:01;102300.84;;;9.11;79.36
15193;BME280;7697;51.630;7.484;2023-02-14T19:12:04;102278.78;;;9.02;78.75
15193;BME280;7697;51.630;7.484;2023-02-14T19:17:07;102297.59;;;8.89;79.58
15193;BME280;7697;51.630;7.484;2023-02-14T19:22:09;102285.84;;;8.74;79.63
15193;BME280;7697;51.630;7.484;2023-02-14T19:27:11;102287.28;;;8.59;79.23
15193;BME280;7697;51.630;7.484;2023-02-14T19:32:14;102291.09;;;8.47;80.26
15193;BME280;7697;51.630;7.484;2023-02-14T19:37:16;102291.25;;;8.36;80.42
15193;BME280;7697;51.630;7.484;2023-02-14T19:42:18;102283.03;;;8.29;80.08
15193;BME280;7697;51.630;7.484;2023-02-14T19:47:21;102285.69;;;8.19;81.39
15193;BME280;7697;51.630;7.484;2023-02-14T19:52:24;102285.13;;;8.16;81.09
15193;BME280;7697;51.630;7.484;2023-02-14T19:57:27;102295.28;;;8.11;81.20
15193;BME280;7697;51.630;7.484;2023-02-14T20:02:30;102289.31;;;7.99;81.99
15193;BME280;7697;51.630;7.484;2023-02-14T20:07:32;102290.72;;;7.84;81.28
15193;BME280;7697;51.630;7.484;2023-02-14T20:12:33;102283.19;;;7.70;81.23
15193;BME280;7697;51.630;7.484;2023-02-14T20:17:37;102274.03;;;7.54;81.90
15193;BME280;7697;51.630;7.484;2023-02-14T20:22:38;102269.16;;;7.40;82.93
15193;BME280;7697;51.630;7.484;2023-02-14T20:27:41;102265.94;;;7.27;82.40
15193;BME280;7697;51.630;7.484;2023-02-14T20:32:44;102257.34;;;7.15;82.50
15193;BME280;7697;51.630;7.484;2023-02-14T20:37:45;102249.09;;;6.99;83.47
15193;BME280;7697;51.630;7.484;2023-02-14T20:42:47;102237.06;;;6.97;84.06
15193;BME280;7697;51.630;7.484;2023-02-14T20:47:51;102231.22;;;6.93;83.88
15193;BME280;7697;51.630;7.484;2023-02-14T20:52:52;102248.69;;;6.94;83.61
15193;BME280;7697;51.630;7.484;2023-02-14T20:57:54;102243.38;;;6.85;83.05
15193;BME280;7697;51.630;7.484;2023-02-14T21:03:03;102238.06;;;6.75;83.49
15193;BME280;7697;51.630;7.484;2023-02-14T21:08:04;102239.97;;;6.63;83.54
15193;BME280;7697;51.630;7.484;2023-02-14T21:13:06;102244.09;;;6.56;83.32
15193;BME280;7697;51.630;7.484;2023-02-14T21:18:12;102241.28;;;6.48;83.84
15193;BME280;7697;51.630;7.484;2023-02-14T21:23:13;102227.94;;;6.40;84.11
15193;BME280;7697;51.630;7.484;2023-02-14T21:28:15;102237.84;;;6.27;84.87
15193;BME280;7697;51.630;7.484;2023-02-14T21:33:18;102238.25;;;6.22;84.36
15193;BME280;7697;51.630;7.484;2023-02-14T21:38:20;102230.72;;;6.18;84.58
15193;BME280;7697;51.630;7.484;2023-02-14T21:43:22;102232.50;;;6.08;84.72
15193;BME280;7697;51.630;7.484;2023-02-14T21:48:25;102222.03;;;5.96;84.96
15193;BME280;7697;51.630;7.484;2023-02-14T21:53:44;102239.47;;;5.97;85.42
15193;BME280;7697;51.630;7.484;2023-02-14T21:58:48;102229.22;;;5.83;85.49
15193;BME280;7697;51.630;7.484;2023-02-14T22:03:52;102215.03;;;5.75;85.15
15193;BME280;7697;51.630;7.484;2023-02-14T22:08:55;102233.56;;;5.73;86.04
15193;BME280;7697;51.630;7.484;2023-02-14T22:13:58;102228.72;;;5.69;86.58
15193;BME280;7697;51.630;7.484;2023-02-14T22:19:01;102220.50;;;5.62;87.05
15193;BME280;7697;51.630;7.484;2023-02-14T22:24:03;102226.00;;;5.59;86.71
15193;BME280;7697;51.630;7.484;2023-02-14T22:29:08;102228.88;;;5.56;86.84
15193;BME280;7697;51.630;7.484;2023-02-14T22:34:13;102226.41;;;5.43;86.95
15193;BME280;7697;51.630;7.484;2023-02-14T22:39:17;102213.91;;;5.36;87.59
15193;BME280;7697;51.630;7.484;2023-02-14T22:44:18;102213.72;;;5.27;87.31
15193;BME280;7697;51.630;7.484;2023-02-14T22:49:21;102202.59;;;5.24;87.69
15193;BME280;7697;51.630;7.484;2023-02-14T22:54:23;102211.31;;;5.24;87.73
15193;BME280;7697;51.630;7.484;2023-02-14T22:59:25;102201.56;;;5.15;87.32
15193;BME280;7697;51.630;7.484;2023-02-14T23:04:29;102202.50;;;5.14;87.60
15193;BME280;7697;51.630;7.484;2023-02-14T23:09:30;102198.72;;;5.07;87.07
15193;BME280;7697;51.630;7.484;2023-02-14T23:14:32;102200.84;;;5.02;87.42
15193;BME280;7697;51.630;7.484;2023-02-14T23:20:07;102202.06;;;4.98;87.73
15193;BME280;7697;51.630;7.484;2023-02-14T23:25:26;102211.19;;;4.83;86.94
15193;BME280;7697;51.630;7.484;2023-02-14T23:30:27;102213.31;;;4.78;87.95
15193;BME280;7697;51.630;7.484;2023-02-14T23:35:30;102199.34;;;4.66;88.29
15193;BME280;7697;51.630;7.484;2023-02-14T23:40:32;102193.75;;;4.60;88.01
15193;BME280;7697;51.630;7.484;2023-02-14T23:45:54;102198.28;;;4.58;88.47
15193;BME280;7697;51.630;7.484;2023-02-14T23:50:59;102192.34;;;4.56;88.12
15193;BME280;7697;51.630;7.484;2023-02-14T23:56:01;102186.63;;;4.50;87.96
